Time;durP1;ratioP1;P1;durP2;ratioP2;P2;SDS_P1;SDS_P2;PMS_P1;PMS_P2;Temp;Humidity;BMP_temperature;BMP_pressure;BME280_temperature;BME280_humidity;BME280_pressure;Samples;Min_cycle;Max_cycle;Signal;HPM_P1;HPM_P2
2021/03/04 00:00:11;;;;;;;177.43;59.50;;;8.00;82.40;;;;;;5077379;28;20979;-89
2021/03/04 00:02:37;;;;;;;177.32;58.22;;;8.10;82.30;;;;;;5076925;28;20261;-89
2021/03/04 00:05:07;;;;;;;158.77;57.35;;;8.00;82.00;;;;;;5077567;28;20208;-88
2021/03/04 00:07:34;;;;;;;172.63;59.53;;;8.00;82.20;;;;;;5077689;28;20182;-89
2021/03/04 00:10:01;;;;;;;162.68;57.20;;;7.90;82.50;;;;;;5077414;28;20179;-87
2021/03/04 00:12:27;;;;;;;156.88;61.90;;;7.90;82.40;;;;;;5076698;28;20203;-87
2021/03/04 00:14:52;;;;;;;167.80;59.45;;;7.70;82.80;;;;;;5078076;28;20564;-88
2021/03/04 00:17:18;;;;;;;176.60;66.23;;;7.70;83.10;;;;;;5077900;28;20173;-88
2021/03/04 00:19:44;;;;;;;185.47;60.87;;;7.70;83.30;;;;;;5077238;28;20178;-88
2021/03/04 00:22:10;;;;;;;176.87;59.80;;;7.90;83.40;;;;;;5076344;28;20219;-87
2021/03/04 00:24:36;;;;;;;168.15;60.90;;;8.10;82.90;;;;;;5076740;28;20180;-88
2021/03/04 00:27:01;;;;;;;152.87;56.80;;;7.90;82.50;;;;;;5077978;28;20208;-87
2021/03/04 00:29:27;;;;;;;135.30;56.63;;;8.10;82.30;;;;;;5076783;28;20168;-87
2021/03/04 00:31:53;;;;;;;155.97;58.57;;;8.30;81.60;;;;;;5076117;28;20438;-88
2021/03/04 00:34:42;;;;;;;136.23;53.47;;;8.30;81.10;;;;;;5076645;28;20202;-88
2021/03/04 00:37:07;;;;;;;132.82;52.00;;;8.20;80.80;;;;;;5076655;28;20905;-88
2021/03/04 00:39:33;;;;;;;153.17;54.00;;;8.30;80.50;;;;;;5076736;28;20181;-88
2021/03/04 00:41:59;;;;;;;144.83;50.60;;;8.50;80.10;;;;;;5075845;28;20647;-89
2021/03/04 00:44:24;;;;;;;138.53;52.97;;;8.60;79.40;;;;;;5075727;28;20811;-89
2021/03/04 00:46:50;;;;;;;128.60;51.30;;;8.30;79.30;;;;;;5075936;28;20295;-88
2021/03/04 00:49:16;;;;;;;149.03;51.67;;;8.00;79.90;;;;;;5076711;28;20604;-88
2021/03/04 00:51:42;;;;;;;143.00;53.87;;;7.80;80.60;;;;;;5092563;28;20215;-88
2021/03/04 00:54:07;;;;;;;142.80;54.33;;;7.90;81.00;;;;;;5099049;28;20168;-86
2021/03/04 00:56:34;;;;;;;142.00;51.40;;;8.30;81.50;;;;;;5096309;28;20513;-88
2021/03/04 00:59:00;;;;;;;134.40;49.38;;;8.30;80.10;;;;;;5091463;28;20181;-88
2021/03/04 01:01:26;;;;;;;151.80;53.10;;;8.30;79.90;;;;;;5090885;28;20266;-88
2021/03/04 01:03:52;;;;;;;126.17;53.10;;;8.40;79.60;;;;;;5093110;28;20204;-88
2021/03/04 01:06:19;;;;;;;133.55;50.85;;;8.50;79.70;;;;;;5093024;28;20465;-88
2021/03/04 01:08:47;;;;;;;138.35;52.65;;;8.60;79.60;;;;;;5094035;28;20196;-88
2021/03/04 01:11:16;;;;;;;144.15;54.15;;;8.50;79.30;;;;;;5090921;28;20283;-89
2021/03/04 01:13:43;;;;;;;150.32;55.58;;;8.10;80.50;;;;;;5088051;28;20740;-87
2021/03/04 01:16:09;;;;;;;153.10;55.20;;;7.90;81.50;;;;;;5093100;28;20165;-88
2021/03/04 01:18:35;;;;;;;141.00;54.97;;;7.90;82.20;;;;;;5095948;28;20203;-88
2021/03/04 01:21:02;;;;;;;156.32;60.42;;;7.90;82.60;;;;;;5088283;28;20173;-90
2021/03/04 01:23:28;;;;;;;167.23;56.65;;;8.40;82.40;;;;;;5098975;28;20193;-89
2021/03/04 01:25:54;;;;;;;144.47;55.90;;;8.30;81.60;;;;;;5098869;28;20214;-90
2021/03/04 01:28:19;;;;;;;150.77;58.00;;;8.40;81.70;;;;;;5098782;28;20191;-87
2021/03/04 01:30:45;;;;;;;139.27;54.77;;;8.70;81.40;;;;;;5098168;28;20168;-88
2021/03/04 01:33:11;;;;;;;168.53;56.83;;;8.60;81.00;;;;;;5098778;28;20165;-89
2021/03/04 01:35:37;;;;;;;159.03;59.67;;;8.50;81.10;;;;;;5098181;28;20537;-87
2021/03/04 01:38:03;;;;;;;163.93;57.87;;;8.70;81.30;;;;;;5088410;28;20255;-88
2021/03/04 01:40:29;;;;;;;160.10;57.70;;;9.10;80.40;;;;;;5083758;28;20523;-89
2021/03/04 01:42:54;;;;;;;215.20;72.07;;;9.30;80.20;;;;;;5081826;28;20234;-89
2021/03/04 01:45:21;;;;;;;228.57;71.13;;;9.10;78.80;;;;;;5081671;28;20308;-89
2021/03/04 01:47:49;;;;;;;249.18;72.53;;;8.80;79.20;;;;;;5080533;28;20177;-89
2021/03/04 01:50:17;;;;;;;246.68;73.55;;;8.60;80.20;;;;;;5080339;28;20272;-89
2021/03/04 01:52:43;;;;;;;234.80;75.35;;;8.70;80.80;;;;;;5079098;28;20292;-89
2021/03/04 01:55:11;;;;;;;258.25;79.05;;;8.40;81.50;;;;;;5080183;28;20271;-89
2021/03/04 01:57:38;;;;;;;233.90;72.55;;;8.40;82.20;;;;;;5079906;28;20225;-89
2021/03/04 02:00:09;;;;;;;198.13;65.25;;;8.50;81.90;;;;;;5079684;28;20173;-88
2021/03/04 02:02:36;;;;;;;198.27;65.97;;;8.50;81.60;;;;;;5078383;28;20200;-88
2021/03/04 02:05:04;;;;;;;178.13;61.60;;;8.60;81.50;;;;;;5080342;28;20523;-89
2021/03/04 02:07:57;;;;;;;151.15;55.53;;;8.70;81.30;;;;;;5079077;28;20187;-88
2021/03/04 02:10:26;;;;;;;160.05;57.10;;;8.40;80.90;;;;;;5079384;28;20183;-89
2021/03/04 02:13:19;;;;;;;154.60;54.95;;;8.10;81.50;;;;;;5078096;28;20204;-89
2021/03/04 02:16:14;;;;;;;165.90;55.75;;;8.10;82.10;;;;;;5078372;28;20198;-90
2021/03/04 02:18:54;;;;;;;163.20;55.95;;;8.30;82.20;;;;;;5074669;28;20188;-88
2021/03/04 02:21:31;;;;;;;144.07;51.97;;;8.00;82.30;;;;;;5080468;28;20206;-88
2021/03/04 02:24:47;;;;;;;169.15;55.22;;;8.10;82.40;;;;;;5079795;28;20604;-89
2021/03/04 02:27:15;;;;;;;143.80;51.92;;;8.20;82.10;;;;;;5045465;28;20207;-88
2021/03/04 02:29:51;;;;;;;153.70;49.97;;;8.20;81.90;;;;;;5079147;28;20203;-89
2021/03/04 02:32:22;;;;;;;150.05;54.88;;;8.10;81.80;;;;;;5078124;28;20200;-89
2021/03/04 02:34:52;;;;;;;159.05;54.78;;;7.90;82.60;;;;;;5078492;28;20172;-89
2021/03/04 02:37:21;;;;;;;168.32;58.25;;;7.80;83.10;;;;;;5078071;28;20184;-89
2021/03/04 02:39:52;;;;;;;163.75;55.75;;;8.10;83.60;;;;;;5077748;28;20180;-89
2021/03/04 02:42:22;;;;;;;172.35;56.42;;;8.20;83.00;;;;;;5076976;28;20242;-88
2021/03/04 02:44:53;;;;;;;179.38;57.15;;;8.30;82.80;;;;;;5076909;28;20169;-89
2021/03/04 02:47:20;;;;;;;179.18;54.95;;;8.30;82.30;;;;;;5078003;28;20239;-89
2021/03/04 02:49:46;;;;;;;151.13;53.00;;;8.30;82.10;;;;;;5078135;28;20172;-89
2021/03/04 02:52:13;;;;;;;148.23;51.30;;;7.90;82.60;;;;;;5077364;28;20615;-89
2021/03/04 02:54:40;;;;;;;162.40;55.00;;;8.30;83.00;;;;;;5076584;28;20263;-89
2021/03/04 02:57:09;;;;;;;179.88;53.38;;;8.30;82.40;;;;;;5077223;28;20601;-89
2021/03/04 02:59:38;;;;;;;144.13;52.03;;;8.00;82.40;;;;;;5059931;28;20204;-89
2021/03/04 03:02:06;;;;;;;168.13;55.22;;;7.90;82.90;;;;;;5076284;28;20232;-89
2021/03/04 03:04:34;;;;;;;179.45;55.85;;;7.90;83.20;;;;;;5076412;28;20184;-89
2021/03/04 03:07:02;;;;;;;182.93;55.50;;;7.90;84.10;;;;;;5076144;28;20307;-89
2021/03/04 03:09:28;;;;;;;168.65;55.15;;;7.90;83.70;;;;;;5076268;28;20241;-88
2021/03/04 03:11:55;;;;;;;150.48;52.17;;;8.20;83.70;;;;;;5076458;28;20226;-89
2021/03/04 03:14:22;;;;;;;175.90;53.70;;;8.60;82.70;;;;;;5077486;28;20523;-89
2021/03/04 03:16:47;;;;;;;154.93;51.20;;;8.60;81.50;;;;;;5076930;28;20183;-89
2021/03/04 03:19:13;;;;;;;183.03;52.77;;;8.30;81.60;;;;;;5076310;28;20176;-89
2021/03/04 03:21:39;;;;;;;177.13;49.23;;;8.10;82.20;;;;;;5075813;28;20231;-89
2021/03/04 03:24:05;;;;;;;190.17;54.53;;;7.90;82.80;;;;;;5075953;28;20437;-88
2021/03/04 03:26:31;;;;;;;217.05;53.55;;;7.90;83.10;;;;;;5075504;28;20200;-89
2021/03/04 03:28:57;;;;;;;183.98;51.50;;;8.10;83.10;;;;;;5076585;28;20173;-89
2021/03/04 03:31:26;;;;;;;191.82;54.08;;;7.90;82.60;;;;;;5077042;28;20203;-88
2021/03/04 03:33:53;;;;;;;192.45;51.53;;;8.10;82.40;;;;;;5076472;28;20168;-88
2021/03/04 03:36:21;;;;;;;158.43;49.50;;;7.80;82.40;;;;;;5077237;28;20176;-88
2021/03/04 03:38:47;;;;;;;203.77;54.08;;;7.90;82.60;;;;;;5077114;28;20635;-88
2021/03/04 03:41:13;;;;;;;190.98;55.13;;;7.90;82.50;;;;;;5075011;28;20303;-88
2021/03/04 03:43:41;;;;;;;189.60;55.95;;;7.60;83.30;;;;;;5077200;28;20177;-88
2021/03/04 03:46:08;;;;;;;215.95;56.72;;;7.50;84.60;;;;;;5080370;28;20201;-88
2021/03/04 03:48:34;;;;;;;211.70;58.80;;;7.50;85.30;;;;;;5080119;28;20200;-89
2021/03/04 03:51:00;;;;;;;158.50;51.10;;;7.40;85.80;;;;;;5080828;28;20294;-88
2021/03/04 03:53:26;;;;;;;167.90;46.45;;;7.30;86.00;;;;;;5085480;28;20538;-89
2021/03/04 03:55:54;;;;;;;176.18;48.28;;;7.40;85.70;;;;;;5083817;28;20237;-88
2021/03/04 03:58:26;;;;;;;171.18;48.10;;;7.50;85.40;;;;;;5082483;28;20204;-88
2021/03/04 04:00:58;;;;;;;167.73;46.17;;;7.30;85.60;;;;;;5082937;28;20233;-88
2021/03/04 04:03:25;;;;;;;153.63;47.22;;;7.20;86.00;;;;;;5085019;28;20234;-88
2021/03/04 04:05:51;;;;;;;162.80;45.28;;;7.20;85.90;;;;;;5084151;28;20216;-88
2021/03/04 04:08:25;;;;;;;137.45;42.20;;;7.20;86.00;;;;;;5083271;28;20551;-89
2021/03/04 04:10:52;;;;;;;134.68;43.80;;;7.10;86.10;;;;;;5082721;28;20502;-88
2021/03/04 04:13:22;;;;;;;130.48;39.13;;;7.00;86.40;;;;;;5082799;28;20547;-88
2021/03/04 04:15:47;;;;;;;130.85;41.67;;;7.30;86.30;;;;;;5081837;28;20631;-88
2021/03/04 04:18:14;;;;;;;121.73;41.50;;;7.30;85.90;;;;;;5081279;28;20180;-88
2021/03/04 04:20:39;;;;;;;130.48;44.85;;;7.50;85.40;;;;;;5077480;28;20411;-88
2021/03/04 04:23:07;;;;;;;125.87;39.50;;;7.60;84.80;;;;;;5077403;28;20203;-87
2021/03/04 04:25:39;;;;;;;156.90;46.97;;;7.50;84.50;;;;;;5077673;28;20458;-87
2021/03/04 04:28:05;;;;;;;176.27;44.65;;;7.60;84.60;;;;;;5077422;28;20177;-87
2021/03/04 04:30:31;;;;;;;143.53;43.00;;;7.50;83.90;;;;;;5078492;28;20173;-88
2021/03/04 04:32:56;;;;;;;154.90;47.77;;;7.80;83.90;;;;;;5078072;28;20280;-88
2021/03/04 04:35:22;;;;;;;136.83;44.70;;;8.00;83.50;;;;;;5077470;28;20422;-88
2021/03/04 04:37:47;;;;;;;117.80;40.60;;;8.10;84.00;;;;;;5077310;28;20188;-88
2021/03/04 04:40:13;;;;;;;132.73;44.10;;;8.40;82.90;;;;;;5077276;28;20184;-88
2021/03/04 04:42:39;;;;;;;147.70;42.50;;;8.40;82.20;;;;;;5077166;28;20307;-88
2021/03/04 04:45:08;;;;;;;153.00;44.87;;;8.60;81.70;;;;;;5077362;28;20426;-89
2021/03/04 04:47:35;;;;;;;137.82;41.55;;;8.60;81.10;;;;;;5078451;28;20772;-89
2021/03/04 04:50:01;;;;;;;153.55;44.50;;;8.50;80.70;;;;;;5082646;28;20192;-89
2021/03/04 04:52:27;;;;;;;148.52;44.70;;;8.60;80.80;;;;;;5077263;28;20272;-89
2021/03/04 04:54:53;;;;;;;142.90;42.73;;;8.60;80.50;;;;;;5067952;28;20197;-87
2021/03/04 04:57:19;;;;;;;142.38;41.58;;;8.40;80.70;;;;;;5062756;28;20604;-88
2021/03/04 04:59:45;;;;;;;143.17;42.40;;;8.50;80.60;;;;;;5081406;28;20180;-89
2021/03/04 05:02:11;;;;;;;138.48;41.20;;;8.50;80.50;;;;;;5078101;28;20292;-89
2021/03/04 05:04:37;;;;;;;127.50;40.67;;;8.30;80.60;;;;;;5077277;28;20177;-89
2021/03/04 05:07:02;;;;;;;135.17;44.67;;;8.50;80.40;;;;;;5077291;28;20586;-89
2021/03/04 05:09:28;;;;;;;133.33;43.23;;;8.50;80.20;;;;;;5076884;28;20551;-87
2021/03/04 05:11:54;;;;;;;147.68;43.33;;;8.20;80.50;;;;;;5077323;28;20596;-89
2021/03/04 05:14:20;;;;;;;145.37;42.77;;;8.00;81.30;;;;;;5077151;28;20179;-87
2021/03/04 05:16:46;;;;;;;142.80;46.30;;;8.40;81.40;;;;;;5076860;28;20177;-88
2021/03/04 05:19:12;;;;;;;150.20;44.37;;;8.40;80.90;;;;;;5081339;28;20463;-89
2021/03/04 05:21:38;;;;;;;154.90;45.60;;;8.60;80.50;;;;;;5077047;28;20193;-90
2021/03/04 05:24:04;;;;;;;136.03;40.40;;;8.60;80.00;;;;;;5077825;28;20182;-88
2021/03/04 05:26:30;;;;;;;145.07;42.45;;;8.50;80.10;;;;;;5076260;28;20674;-88
2021/03/04 05:28:55;;;;;;;147.60;41.60;;;8.30;80.80;;;;;;5076697;28;20187;-88
2021/03/04 05:31:21;;;;;;;144.57;42.30;;;8.30;81.30;;;;;;5076407;28;20198;-88
2021/03/04 05:33:47;;;;;;;158.43;44.17;;;8.30;81.50;;;;;;5076562;28;20172;-88
2021/03/04 05:36:12;;;;;;;150.43;42.73;;;8.10;82.00;;;;;;5075776;28;20188;-90
2021/03/04 05:38:38;;;;;;;149.00;43.27;;;7.90;82.60;;;;;;5075814;28;20180;-90
2021/03/04 05:41:05;;;;;;;142.33;43.30;;;7.80;83.00;;;;;;5076184;28;20223;-90
2021/03/04 05:43:31;;;;;;;150.20;43.55;;;8.10;83.30;;;;;;5076477;28;20415;-90
2021/03/04 05:45:57;;;;;;;151.40;47.23;;;8.40;82.60;;;;;;5076134;28;20201;-89
2021/03/04 05:48:25;;;;;;;137.00;44.67;;;8.50;82.00;;;;;;5076878;28;20415;-88
2021/03/04 05:50:54;;;;;;;148.43;42.22;;;8.30;81.40;;;;;;5079486;28;20184;-89
2021/03/04 05:53:21;;;;;;;146.00;43.65;;;8.20;81.50;;;;;;5078355;28;20172;-90
2021/03/04 05:55:47;;;;;;;141.10;43.53;;;8.30;81.90;;;;;;5076860;28;20677;-89
2021/03/04 05:58:15;;;;;;;153.63;44.33;;;8.30;81.70;;;;;;5075427;28;20271;-88
2021/03/04 06:00:44;;;;;;;153.00;45.72;;;8.10;81.70;;;;;;5076357;28;20180;-90
2021/03/04 06:03:11;;;;;;;151.65;45.00;;;8.00;81.90;;;;;;5075809;28;20181;-90
2021/03/04 06:05:37;;;;;;;147.43;43.55;;;8.10;82.80;;;;;;5075586;28;20242;-89
2021/03/04 06:08:05;;;;;;;151.90;44.67;;;7.90;82.40;;;;;;5077244;28;20243;-88
2021/03/04 06:10:31;;;;;;;156.68;44.78;;;7.60;83.10;;;;;;5075543;28;20654;-88
2021/03/04 06:12:59;;;;;;;150.13;45.88;;;7.60;83.70;;;;;;5076539;28;20189;-88
2021/03/04 06:15:26;;;;;;;202.15;48.40;;;7.60;83.80;;;;;;5076204;28;20265;-88
2021/03/04 06:18:01;;;;;;;188.85;48.65;;;7.70;83.80;;;;;;5076277;28;20177;-88
2021/03/04 06:20:37;;;;;;;178.05;50.35;;;7.60;83.90;;;;;;5076274;28;20180;-88
2021/03/04 06:23:03;;;;;;;174.82;49.83;;;7.50;84.70;;;;;;5075395;28;20282;-81
2021/03/04 06:25:31;;;;;;;181.75;47.03;;;7.30;85.20;;;;;;5072422;28;20204;-81
2021/03/04 06:27:58;;;;;;;164.60;48.67;;;7.40;85.40;;;;;;5072610;28;20173;-81
2021/03/04 06:30:25;;;;;;;163.25;50.13;;;7.40;85.40;;;;;;5072203;28;20630;-81
2021/03/04 06:32:57;;;;;;;196.65;47.72;;;7.40;85.00;;;;;;5071973;28;20197;-80
2021/03/04 06:35:24;;;;;;;181.30;51.80;;;7.60;85.10;;;;;;5072270;28;20538;-81
2021/03/04 06:37:50;;;;;;;200.75;48.85;;;7.50;85.00;;;;;;5074140;28;20579;-81
2021/03/04 06:40:19;;;;;;;170.60;52.55;;;7.60;84.80;;;;;;5074256;28;20180;-81
2021/03/04 06:42:46;;;;;;;189.23;52.20;;;7.40;84.80;;;;;;5071593;28;20220;-81
2021/03/04 06:45:28;;;;;;;184.30;50.88;;;7.50;85.10;;;;;;5072421;28;20218;-81
2021/03/04 06:48:15;;;;;;;197.35;49.67;;;7.50;85.20;;;;;;5074113;28;20168;-81
2021/03/04 06:50:49;;;;;;;196.57;55.58;;;7.60;85.10;;;;;;5072795;28;20248;-81
2021/03/04 06:53:17;;;;;;;190.32;54.53;;;7.60;85.10;;;;;;5073015;28;20183;-81
2021/03/04 06:56:10;;;;;;;198.70;59.05;;;7.40;85.10;;;;;;5072998;28;20196;-81
2021/03/04 06:58:40;;;;;;;229.63;55.15;;;7.80;85.30;;;;;;5075769;28;20478;-81
2021/03/04 07:01:09;;;;;;;235.13;53.92;;;7.80;84.70;;;;;;5073172;28;20569;-81
2021/03/04 07:03:36;;;;;;;217.88;56.97;;;7.90;84.70;;;;;;5074627;28;20716;-81
2021/03/04 07:06:06;;;;;;;214.90;56.85;;;8.00;84.50;;;;;;5073518;28;20675;-80
2021/03/04 07:08:39;;;;;;;234.57;60.80;;;7.90;84.40;;;;;;5072907;28;20190;-81
2021/03/04 07:11:06;;;;;;;245.75;62.15;;;8.00;84.10;;;;;;5073079;28;20251;-81
2021/03/04 07:13:35;;;;;;;210.13;57.28;;;7.70;84.30;;;;;;5073846;28;20221;-80
2021/03/04 07:16:08;;;;;;;237.57;59.65;;;7.70;84.80;;;;;;5075942;28;20188;-80
2021/03/04 07:18:44;;;;;;;201.27;57.20;;;7.70;84.90;;;;;;5075626;28;20180;-81
2021/03/04 07:21:12;;;;;;;273.45;61.80;;;7.80;85.00;;;;;;5078758;28;20679;-81
2021/03/04 07:23:43;;;;;;;230.80;56.63;;;7.70;85.00;;;;;;5078037;28;20181;-81
2021/03/04 07:26:11;;;;;;;219.95;56.78;;;7.70;85.20;;;;;;5076093;28;20231;-82
2021/03/04 07:28:39;;;;;;;210.32;54.20;;;7.70;85.20;;;;;;5076954;28;20215;-79
2021/03/04 07:31:05;;;;;;;215.82;57.55;;;7.60;85.10;;;;;;5075739;28;20341;-81
2021/03/04 07:33:34;;;;;;;237.88;61.30;;;7.60;85.20;;;;;;5075912;28;20188;-81
2021/03/04 07:36:04;;;;;;;213.15;59.08;;;7.70;85.10;;;;;;5076062;28;20208;-80
2021/03/04 07:38:30;;;;;;;223.25;57.92;;;7.80;84.70;;;;;;5076212;28;20246;-82
2021/03/04 07:41:14;;;;;;;201.50;61.38;;;7.90;84.50;;;;;;5075140;28;20187;-82
2021/03/04 07:43:43;;;;;;;214.90;55.75;;;7.90;84.20;;;;;;5075704;28;20233;-81
2021/03/04 07:46:09;;;;;;;207.93;55.53;;;7.80;83.80;;;;;;5076845;28;20208;-81
2021/03/04 07:48:35;;;;;;;209.03;56.23;;;7.70;84.00;;;;;;5075869;28;20226;-82
2021/03/04 07:51:01;;;;;;;240.33;58.37;;;7.60;84.40;;;;;;5074601;28;20181;-81
2021/03/04 07:53:27;;;;;;;250.73;62.03;;;7.70;84.50;;;;;;5075701;28;20414;-82
2021/03/04 07:55:53;;;;;;;230.65;57.15;;;7.80;84.40;;;;;;5075595;28;20180;-81
2021/03/04 07:58:19;;;;;;;231.83;58.67;;;7.60;84.40;;;;;;5076929;28;20497;-80
2021/03/04 08:00:45;;;;;;;214.33;51.23;;;7.50;84.90;;;;;;5075090;28;20184;-81
2021/03/04 08:03:11;;;;;;;209.65;57.67;;;7.60;85.00;;;;;;5077321;28;20419;-81
2021/03/04 08:05:39;;;;;;;208.63;57.43;;;7.70;85.00;;;;;;5077331;28;20218;-81
2021/03/04 08:08:18;;;;;;;201.13;53.88;;;7.80;84.70;;;;;;5077484;28;20477;-80
2021/03/04 08:10:54;;;;;;;198.05;49.47;;;7.40;84.40;;;;;;5076863;28;20172;-80
2021/03/04 08:13:39;;;;;;;187.05;49.47;;;7.50;84.60;;;;;;5076781;28;20156;-80
2021/03/04 08:16:16;;;;;;;195.88;52.55;;;7.40;84.80;;;;;;5077660;28;20172;-81
2021/03/04 08:18:43;;;;;;;194.93;53.03;;;7.40;84.90;;;;;;5076957;28;20176;-81
2021/03/04 08:21:09;;;;;;;199.05;49.55;;;7.60;84.70;;;;;;5075067;28;20232;-80
2021/03/04 08:23:42;;;;;;;172.95;44.45;;;7.40;84.70;;;;;;5076847;28;20216;-80
2021/03/04 08:26:23;;;;;;;162.98;47.80;;;7.10;85.10;;;;;;5076967;28;20671;-80
2021/03/04 08:29:00;;;;;;;172.10;43.97;;;7.20;85.40;;;;;;5075383;28;20230;-80
2021/03/04 08:31:27;;;;;;;183.02;46.47;;;7.30;85.20;;;;;;5075471;28;20250;-81
2021/03/04 08:33:57;;;;;;;155.48;44.58;;;7.20;85.00;;;;;;5075564;28;20639;-81
2021/03/04 08:36:23;;;;;;;182.35;48.28;;;7.10;85.60;;;;;;5075524;28;20215;-80
2021/03/04 08:38:48;;;;;;;143.30;41.23;;;7.20;86.00;;;;;;5075010;28;20185;-80
2021/03/04 08:41:22;;;;;;;155.63;41.70;;;7.00;85.80;;;;;;5074401;28;20648;-80
2021/03/04 08:43:49;;;;;;;125.55;38.45;;;7.20;86.10;;;;;;5075225;28;20611;-81
2021/03/04 08:46:18;;;;;;;124.50;35.60;;;7.20;85.80;;;;;;5077190;28;20283;-79
2021/03/04 08:48:45;;;;;;;120.07;35.45;;;7.10;85.80;;;;;;5075231;28;20177;-80
2021/03/04 08:51:12;;;;;;;136.15;38.25;;;7.10;85.90;;;;;;5074916;28;20192;-81
2021/03/04 08:53:38;;;;;;;119.55;35.47;;;7.30;85.80;;;;;;5076268;28;20175;-80
2021/03/04 08:56:10;;;;;;;124.28;33.17;;;7.10;85.70;;;;;;5074624;28;20216;-80
2021/03/04 08:58:42;;;;;;;90.43;28.38;;;7.10;85.80;;;;;;5075930;28;20544;-79
2021/03/04 09:01:08;;;;;;;86.55;28.15;;;7.00;86.10;;;;;;5073958;28;20283;-80
2021/03/04 09:03:37;;;;;;;101.45;31.83;;;7.10;86.30;;;;;;5074446;28;20267;-81
2021/03/04 09:06:16;;;;;;;86.57;29.27;;;6.90;86.10;;;;;;5074325;28;20214;-81
2021/03/04 09:08:46;;;;;;;97.57;30.77;;;7.00;86.30;;;;;;5075845;28;20173;-80
2021/03/04 09:11:27;;;;;;;83.65;26.15;;;7.00;86.30;;;;;;5074044;28;20196;-81
2021/03/04 09:14:01;;;;;;;108.72;31.30;;;7.00;86.20;;;;;;5075874;28;20222;-81
2021/03/04 09:16:27;;;;;;;108.57;27.75;;;7.10;86.30;;;;;;5074757;28;20215;-81
2021/03/04 09:18:53;;;;;;;85.10;29.00;;;7.00;86.40;;;;;;5074731;28;20212;-81
2021/03/04 09:21:18;;;;;;;85.53;30.43;;;7.00;87.00;;;;;;5073813;28;20734;-81
2021/03/04 09:23:45;;;;;;;88.67;28.30;;;7.00;87.50;;;;;;5075910;28;20454;-81
2021/03/04 09:26:11;;;;;;;95.13;30.75;;;6.90;88.00;;;;;;5075848;28;20454;-82
2021/03/04 09:28:41;;;;;;;85.18;31.05;;;7.00;88.30;;;;;;5075495;28;20172;-82
2021/03/04 09:31:13;;;;;;;110.70;32.33;;;7.00;88.50;;;;;;5073932;28;20196;-82
2021/03/04 09:33:38;;;;;;;108.70;30.58;;;6.90;88.90;;;;;;5075983;28;20635;-83
2021/03/04 09:36:05;;;;;;;91.93;27.13;;;6.90;89.20;;;;;;5075616;28;20176;-83
2021/03/04 09:38:34;;;;;;;107.60;30.02;;;6.90;89.50;;;;;;5074334;28;20520;-83
2021/03/04 09:41:11;;;;;;;79.43;24.65;;;7.00;90.50;;;;;;5074542;28;20238;-84
2021/03/04 09:43:43;;;;;;;79.18;25.90;;;7.00;89.80;;;;;;5074723;28;20179;-83
2021/03/04 09:46:09;;;;;;;85.50;25.92;;;7.00;89.90;;;;;;5074155;28;20216;-84
2021/03/04 09:48:40;;;;;;;91.18;23.75;;;6.80;89.80;;;;;;5074684;28;20655;-84
2021/03/04 09:51:06;;;;;;;85.05;26.98;;;6.90;90.00;;;;;;5073796;28;20212;-84
2021/03/04 09:53:48;;;;;;;71.13;25.80;;;6.90;90.00;;;;;;5074259;28;20181;-84
2021/03/04 09:56:21;;;;;;;102.20;26.38;;;7.00;89.80;;;;;;5074107;28;20277;-82
2021/03/04 09:58:48;;;;;;;93.03;26.45;;;6.80;89.50;;;;;;5075421;28;20509;-83
2021/03/04 10:01:13;;;;;;;92.85;24.88;;;7.00;90.00;;;;;;5075817;28;20205;-83
2021/03/04 10:03:40;;;;;;;82.37;25.57;;;6.90;89.70;;;;;;5074949;28;20180;-83
2021/03/04 10:06:19;;;;;;;82.43;24.95;;;6.80;89.70;;;;;;5077009;28;20542;-83
2021/03/04 10:08:44;;;;;;;79.10;24.55;;;6.70;89.60;;;;;;5076192;28;20184;-84
2021/03/04 10:11:21;;;;;;;102.93;29.67;;;6.60;89.40;;;;;;5067540;28;20196;-84
2021/03/04 10:13:47;;;;;;;97.07;26.98;;;6.50;89.50;;;;;;5055172;28;20230;-83
2021/03/04 10:16:13;;;;;;;93.07;26.07;;;6.50;89.60;;;;;;5055350;28;20189;-83
2021/03/04 10:18:47;;;;;;;94.30;29.48;;;6.60;89.40;;;;;;5057199;28;20184;-83
2021/03/04 10:21:17;;;;;;;93.28;29.08;;;6.50;89.00;;;;;;5055932;28;20189;-83
2021/03/04 10:23:46;;;;;;;90.43;28.67;;;6.70;89.30;;;;;;5054466;28;20177;-83
2021/03/04 10:26:12;;;;;;;106.18;28.42;;;6.70;89.50;;;;;;5055095;28;20232;-83
2021/03/04 10:28:37;;;;;;;101.80;28.63;;;6.90;89.60;;;;;;5055511;28;20227;-82
2021/03/04 10:31:03;;;;;;;127.70;30.63;;;7.00;89.40;;;;;;5056064;28;20173;-84
2021/03/04 10:33:29;;;;;;;119.67;29.17;;;6.90;89.00;;;;;;5054203;28;20210;-83
2021/03/04 10:35:54;;;;;;;92.87;26.73;;;6.90;88.90;;;;;;5052825;28;20177;-83
2021/03/04 10:38:20;;;;;;;84.20;26.43;;;7.00;88.80;;;;;;5053020;28;20174;-83
2021/03/04 10:40:46;;;;;;;92.53;24.20;;;6.90;88.50;;;;;;5053735;28;20179;-84
2021/03/04 10:43:11;;;;;;;102.07;27.07;;;6.70;88.70;;;;;;5057725;28;20176;-82
2021/03/04 10:45:37;;;;;;;78.27;24.40;;;6.90;88.90;;;;;;5073464;28;20279;-83
2021/03/04 10:48:03;;;;;;;84.80;25.17;;;7.10;88.70;;;;;;5073215;28;20703;-83
2021/03/04 10:50:29;;;;;;;70.40;21.63;;;7.00;88.10;;;;;;5074115;28;20186;-84
2021/03/04 10:52:55;;;;;;;83.20;21.93;;;7.00;88.10;;;;;;5073120;28;20309;-82
2021/03/04 10:55:21;;;;;;;72.07;21.00;;;7.10;88.00;;;;;;5078608;28;20255;-83
2021/03/04 10:57:47;;;;;;;66.18;23.63;;;7.00;87.80;;;;;;5080295;28;20418;-83
2021/03/04 11:00:14;;;;;;;89.95;20.90;;;7.00;87.60;;;;;;5079425;28;20192;-83
2021/03/04 11:02:40;;;;;;;83.07;23.75;;;6.90;87.40;;;;;;5064848;28;20208;-83
2021/03/04 11:05:07;;;;;;;87.17;24.43;;;7.00;87.20;;;;;;5056897;28;20173;-83
2021/03/04 11:07:33;;;;;;;85.28;22.23;;;7.00;87.10;;;;;;5059293;28;20411;-83
2021/03/04 11:09:59;;;;;;;85.00;26.05;;;6.90;87.40;;;;;;5058239;28;20177;-82
2021/03/04 11:12:25;;;;;;;91.97;23.10;;;6.90;87.50;;;;;;5058793;28;20223;-83
2021/03/04 11:14:51;;;;;;;91.32;24.10;;;6.90;87.40;;;;;;5059540;28;20177;-83
2021/03/04 11:17:16;;;;;;;74.87;25.57;;;7.10;87.50;;;;;;5058056;28;20188;-83
2021/03/04 11:19:43;;;;;;;87.30;24.90;;;6.90;87.40;;;;;;5057729;28;20449;-84
2021/03/04 11:22:09;;;;;;;97.03;24.95;;;6.80;87.60;;;;;;5057644;28;20455;-83
2021/03/04 11:24:36;;;;;;;85.05;24.77;;;6.90;87.70;;;;;;5059276;28;20627;-83
2021/03/04 11:27:04;;;;;;;107.15;25.67;;;6.80;87.50;;;;;;5057047;28;20259;-83
2021/03/04 11:29:29;;;;;;;80.13;23.45;;;6.80;87.20;;;;;;5056008;28;20177;-82
2021/03/04 11:31:55;;;;;;;70.57;24.20;;;6.80;87.10;;;;;;5055894;28;20201;-83
2021/03/04 11:34:21;;;;;;;99.00;26.07;;;6.90;87.20;;;;;;5056738;28;20745;-83
2021/03/04 11:36:47;;;;;;;90.23;27.27;;;6.80;87.30;;;;;;5056003;28;20181;-83
2021/03/04 11:39:14;;;;;;;93.33;27.33;;;6.80;87.70;;;;;;5058800;28;20434;-83
2021/03/04 11:41:39;;;;;;;94.18;25.88;;;7.00;87.80;;;;;;5075205;28;20454;-82
2021/03/04 11:44:06;;;;;;;82.57;25.67;;;6.90;87.70;;;;;;5076304;28;20275;-82
2021/03/04 11:46:32;;;;;;;103.47;28.30;;;6.80;87.60;;;;;;5076681;28;20973;-82
2021/03/04 11:48:58;;;;;;;94.50;26.00;;;6.60;87.40;;;;;;5076824;28;20189;-83
2021/03/04 11:51:24;;;;;;;102.23;28.73;;;6.80;87.60;;;;;;5076401;28;20435;-83
2021/03/04 11:53:49;;;;;;;102.67;29.03;;;6.90;87.70;;;;;;5075846;28;20181;-82
2021/03/04 11:56:15;;;;;;;113.90;29.30;;;7.10;87.50;;;;;;5076127;28;20184;-82
2021/03/04 11:58:41;;;;;;;111.53;30.15;;;6.80;86.90;;;;;;5079107;28;20173;-82
2021/03/04 12:01:07;;;;;;;114.93;30.50;;;6.60;87.10;;;;;;5078223;28;20207;-83
2021/03/04 12:03:33;;;;;;;126.67;33.60;;;6.60;88.10;;;;;;5076268;28;20181;-83
2021/03/04 12:05:59;;;;;;;125.40;32.07;;;6.50;87.70;;;;;;5075737;28;20744;-83
2021/03/04 12:08:24;;;;;;;128.70;29.10;;;6.40;88.20;;;;;;5077979;28;20415;-83
2021/03/04 12:10:51;;;;;;;111.87;31.40;;;6.40;88.90;;;;;;5075813;28;20418;-81
2021/03/04 12:13:17;;;;;;;108.22;27.60;;;6.50;89.30;;;;;;5075796;28;20173;-81
2021/03/04 12:15:43;;;;;;;116.53;30.95;;;6.70;89.20;;;;;;5075874;28;20188;-83
2021/03/04 12:18:10;;;;;;;119.10;30.37;;;6.90;88.90;;;;;;5075863;28;20181;-82
2021/03/04 12:20:36;;;;;;;105.45;29.33;;;6.90;88.60;;;;;;5075898;28;20494;-83
2021/03/04 12:23:03;;;;;;;106.35;27.75;;;6.70;88.10;;;;;;5081374;28;20196;-82
2021/03/04 12:25:29;;;;;;;111.50;31.25;;;6.50;88.00;;;;;;5094385;28;20201;-83
2021/03/04 12:27:55;;;;;;;109.00;29.57;;;6.50;88.30;;;;;;5087678;28;20181;-83
2021/03/04 12:30:23;;;;;;;93.57;28.40;;;6.50;88.70;;;;;;5088647;28;20179;-83
2021/03/04 12:32:49;;;;;;;134.38;31.77;;;6.40;88.80;;;;;;5090249;28;20227;-82